sensor_id;sensor_type;location;lat;lon;timestamp;P1;durP1;ratioP1;P2;durP2;ratioP2
69769;SDS011;57282;52.514;13.458;2023-04-15T00:01:08;13.02;;;7.63;;
69769;SDS011;57282;52.514;13.458;2023-04-15T00:03:35;20.23;;;8.05;;
69769;SDS011;57282;52.514;13.458;2023-04-15T00:06:02;18.63;;;7.30;;
69769;SDS011;57282;52.514;13.458;2023-04-15T00:08:29;10.48;;;6.07;;
69769;SDS011;57282;52.514;13.458;2023-04-15T00:10:57;27.20;;;7.97;;
69769;SDS011;57282;52.514;13.458;2023-04-15T00:13:26;15.80;;;7.07;;
69769;SDS011;57282;52.514;13.458;2023-04-15T00:15:53;21.30;;;7.63;;
69769;SDS011;57282;52.514;13.458;2023-04-15T00:18:20;13.68;;;7.50;;
69769;SDS011;57282;52.514;13.458;2023-04-15T00:20:47;29.05;;;7.75;;
69769;SDS011;57282;52.514;13.458;2023-04-15T00:23:14;21.33;;;7.57;;
69769;SDS011;57282;52.514;13.458;2023-04-15T00:25:40;23.25;;;9.23;;
69769;SDS011;57282;52.514;13.458;2023-04-15T00:28:09;17.42;;;6.80;;
69769;SDS011;57282;52.514;13.458;2023-04-15T00:30:35;18.95;;;8.23;;
69769;SDS011;57282;52.514;13.458;2023-04-15T00:33:03;22.23;;;7.47;;
69769;SDS011;57282;52.514;13.458;2023-04-15T00:35:30;18.57;;;9.63;;
69769;SDS011;57282;52.514;13.458;2023-04-15T00:37:57;48.10;;;8.98;;
69769;SDS011;57282;52.514;13.458;2023-04-15T00:40:24;39.30;;;8.75;;
69769;SDS011;57282;52.514;13.458;2023-04-15T00:42:52;26.10;;;8.68;;
69769;SDS011;57282;52.514;13.458;2023-04-15T00:45:20;44.88;;;8.43;;
69769;SDS011;57282;52.514;13.458;2023-04-15T00:47:47;29.73;;;7.20;;
69769;SDS011;57282;52.514;13.458;2023-04-15T00:50:14;36.65;;;7.20;;
69769;SDS011;57282;52.514;13.458;2023-04-15T00:52:41;25.92;;;6.95;;
69769;SDS011;57282;52.514;13.458;2023-04-15T00:55:08;23.17;;;7.88;;
69769;SDS011;57282;52.514;13.458;2023-04-15T00:57:35;32.55;;;9.98;;
69769;SDS011;57282;52.514;13.458;2023-04-15T01:00:04;26.70;;;8.83;;
69769;SDS011;57282;52.514;13.458;2023-04-15T01:02:35;23.52;;;6.90;;
69769;SDS011;57282;52.514;13.458;2023-04-15T01:05:02;20.08;;;11.38;;
69769;SDS011;57282;52.514;13.458;2023-04-15T01:07:30;25.27;;;13.35;;
69769;SDS011;57282;52.514;13.458;2023-04-15T01:09:57;25.02;;;12.93;;
69769;SDS011;57282;52.514;13.458;2023-04-15T01:12:25;20.20;;;12.73;;
69769;SDS011;57282;52.514;13.458;2023-04-15T01:14:52;21.45;;;12.30;;
69769;SDS011;57282;52.514;13.458;2023-04-15T01:17:19;20.13;;;13.48;;
69769;SDS011;57282;52.514;13.458;2023-04-15T01:19:47;24.63;;;13.18;;
69769;SDS011;57282;52.514;13.458;2023-04-15T01:22:14;24.25;;;12.77;;
69769;SDS011;57282;52.514;13.458;2023-04-15T01:24:41;18.97;;;11.77;;
69769;SDS011;57282;52.514;13.458;2023-04-15T01:27:10;20.25;;;12.23;;
69769;SDS011;57282;52.514;13.458;2023-04-15T01:29:37;21.75;;;12.27;;
69769;SDS011;57282;52.514;13.458;2023-04-15T01:32:04;19.77;;;11.57;;
69769;SDS011;57282;52.514;13.458;2023-04-15T01:34:30;23.85;;;11.70;;
69769;SDS011;57282;52.514;13.458;2023-04-15T01:36:57;21.90;;;10.70;;
69769;SDS011;57282;52.514;13.458;2023-04-15T01:39:24;24.77;;;11.27;;
69769;SDS011;57282;52.514;13.458;2023-04-15T01:41:50;27.15;;;11.63;;
69769;SDS011;57282;52.514;13.458;2023-04-15T01:44:18;29.40;;;10.57;;
69769;SDS011;57282;52.514;13.458;2023-04-15T01:46:45;18.70;;;11.23;;
69769;SDS011;57282;52.514;13.458;2023-04-15T01:49:12;22.87;;;11.50;;
